createdAt,value
2022-08-28T00:00:29.253Z,17.90
2022-08-28T00:02:57.921Z,17.80
2022-08-28T00:05:27.186Z,17.80
2022-08-28T00:07:54.626Z,17.80
2022-08-28T00:10:22.600Z,17.80
2022-08-28T00:12:52.176Z,17.80
2022-08-28T00:15:23.326Z,17.80
2022-08-28T00:17:51.109Z,17.70
2022-08-28T00:20:19.799Z,17.70
2022-08-28T00:22:47.337Z,17.60
2022-08-28T00:25:15.631Z,17.60
2022-08-28T00:27:55.161Z,17.60
2022-08-28T00:30:25.983Z,17.50
2022-08-28T00:32:54.771Z,17.60
2022-08-28T00:35:23.813Z,17.50
2022-08-28T00:37:52.123Z,17.40
2022-08-28T00:40:28.796Z,17.40
2022-08-28T00:43:01.574Z,17.40
2022-08-28T00:45:29.205Z,17.40
2022-08-28T00:47:56.759Z,17.40
2022-08-28T00:50:26.964Z,17.40
2022-08-28T00:52:59.744Z,17.30
2022-08-28T00:55:28.416Z,17.30
2022-08-28T00:57:59.323Z,17.30
2022-08-28T01:00:31.244Z,17.30
2022-08-28T01:02:58.861Z,17.20
2022-08-28T01:05:28.673Z,17.20
2022-08-28T01:07:58.641Z,17.20
2022-08-28T01:10:28.677Z,17.20
2022-08-28T01:12:57.564Z,17.20
2022-08-28T01:15:32.393Z,17.10
2022-08-28T01:18:08.085Z,17.10
2022-08-28T01:20:37.885Z,17.00
2022-08-28T01:23:17.430Z,17.00
2022-08-28T01:25:44.481Z,17.00
2022-08-28T01:28:13.729Z,17.00
2022-08-28T01:30:44.478Z,16.90
2022-08-28T01:33:11.994Z,16.90
2022-08-28T01:35:42.472Z,16.90
2022-08-28T01:38:09.556Z,16.80
2022-08-28T01:40:40.437Z,16.80
2022-08-28T01:43:15.812Z,16.80
2022-08-28T01:45:46.025Z,16.80
2022-08-28T01:48:14.553Z,16.70
2022-08-28T01:50:42.839Z,16.60
2022-08-28T01:53:14.505Z,16.60
2022-08-28T01:55:43.223Z,16.50
2022-08-28T01:58:12.125Z,16.50
2022-08-28T02:00:39.857Z,16.50
2022-08-28T02:03:06.885Z,16.50
2022-08-28T02:05:34.714Z,16.50
2022-08-28T02:08:03.771Z,16.40
2022-08-28T02:10:33.818Z,16.40
2022-08-28T02:13:01.880Z,16.40
2022-08-28T02:15:31.422Z,16.30
2022-08-28T02:17:59.723Z,16.30
2022-08-28T02:20:28.954Z,16.30
2022-08-28T02:22:57.876Z,16.30
2022-08-28T02:25:27.042Z,16.30
2022-08-28T02:27:54.391Z,16.30
2022-08-28T02:30:21.492Z,16.40
2022-08-28T02:32:49.796Z,16.40
2022-08-28T02:35:18.700Z,16.40
2022-08-28T02:37:47.653Z,16.40
2022-08-28T02:40:17.519Z,16.30
2022-08-28T02:42:45.121Z,16.30
2022-08-28T02:45:14.183Z,16.20
2022-08-28T02:47:43.537Z,16.20
2022-08-28T02:50:13.857Z,16.20
2022-08-28T02:52:42.301Z,16.10
2022-08-28T02:55:11.191Z,16.00
2022-08-28T02:57:38.480Z,16.00
2022-08-28T03:00:07.956Z,15.90
2022-08-28T03:02:34.976Z,15.90
2022-08-28T03:05:02.000Z,15.80
2022-08-28T03:07:29.250Z,15.80
2022-08-28T03:09:56.592Z,15.80
2022-08-28T03:12:26.628Z,15.70
2022-08-28T03:14:55.037Z,15.60
2022-08-28T03:17:22.328Z,15.50
2022-08-28T03:19:50.261Z,15.50
2022-08-28T03:22:38.585Z,15.50
2022-08-28T03:25:06.769Z,15.50
2022-08-28T03:27:34.085Z,15.40
2022-08-28T03:30:02.601Z,15.40
2022-08-28T03:32:31.595Z,15.40
2022-08-28T03:34:58.559Z,15.40
2022-08-28T03:37:26.041Z,15.40
2022-08-28T03:39:53.089Z,15.40
2022-08-28T03:42:20.258Z,15.30
2022-08-28T03:44:49.074Z,15.30
2022-08-28T03:47:16.502Z,15.30
2022-08-28T03:49:45.238Z,15.30
2022-08-28T03:52:12.423Z,15.30
2022-08-28T03:54:39.611Z,15.30
2022-08-28T03:57:07.554Z,15.20
2022-08-28T03:59:35.781Z,15.20
2022-08-28T04:02:02.982Z,15.20
2022-08-28T04:04:29.992Z,15.20
2022-08-28T04:06:57.379Z,15.20
2022-08-28T04:09:24.367Z,15.20
2022-08-28T04:11:52.667Z,15.20
2022-08-28T04:14:19.700Z,15.20
2022-08-28T04:16:46.739Z,15.20
2022-08-28T04:19:13.742Z,15.20
2022-08-28T04:21:41.068Z,15.10
2022-08-28T04:24:09.822Z,15.10
2022-08-28T04:26:37.216Z,15.20
2022-08-28T04:29:04.768Z,15.10
2022-08-28T04:31:32.940Z,15.20
2022-08-28T04:34:05.280Z,15.20
2022-08-28T04:36:36.201Z,15.10
2022-08-28T04:39:05.817Z,15.10
2022-08-28T04:41:33.256Z,15.10
2022-08-28T04:43:59.961Z,15.10
2022-08-28T04:46:31.253Z,15.00
2022-08-28T04:48:58.546Z,15.10
2022-08-28T04:51:26.558Z,15.10
2022-08-28T04:53:53.519Z,15.00
2022-08-28T04:56:20.841Z,15.00
2022-08-28T04:58:47.570Z,15.00
2022-08-28T05:01:18.832Z,15.00
2022-08-28T05:03:47.923Z,15.00
2022-08-28T05:06:16.319Z,15.00
2022-08-28T05:08:43.306Z,15.00
2022-08-28T05:11:33.570Z,15.00
2022-08-28T05:14:06.746Z,15.10
2022-08-28T05:16:40.810Z,15.10
2022-08-28T05:19:07.526Z,15.10
2022-08-28T05:21:34.943Z,15.10
2022-08-28T05:24:01.738Z,15.20
2022-08-28T05:26:29.887Z,15.20
2022-08-28T05:28:59.327Z,15.20
2022-08-28T05:31:28.994Z,15.20
2022-08-28T05:33:56.094Z,15.30
2022-08-28T05:36:25.870Z,15.40
2022-08-28T05:38:59.968Z,15.40
2022-08-28T05:41:33.063Z,15.50
2022-08-28T05:44:02.234Z,15.50
2022-08-28T05:46:29.716Z,15.50
2022-08-28T05:48:57.556Z,15.50
2022-08-28T05:51:26.845Z,15.50
2022-08-28T05:53:54.516Z,15.50
2022-08-28T05:56:25.874Z,15.50
2022-08-28T05:58:52.616Z,15.40
2022-08-28T06:01:41.289Z,15.40
2022-08-28T06:04:11.251Z,15.40
2022-08-28T06:06:39.686Z,15.40
2022-08-28T06:09:13.034Z,15.40
2022-08-28T06:11:44.547Z,15.40
2022-08-28T06:14:16.230Z,15.40
2022-08-28T06:16:47.599Z,15.60
2022-08-28T06:19:16.806Z,16.10
2022-08-28T06:21:45.162Z,17.60
2022-08-28T06:24:13.266Z,19.60
2022-08-28T06:26:41.491Z,21.40
2022-08-28T06:29:11.315Z,23.10
2022-08-28T06:31:39.447Z,24.30
2022-08-28T06:34:07.048Z,24.90
2022-08-28T06:36:37.570Z,24.40
2022-08-28T06:39:05.815Z,25.50
2022-08-28T06:41:34.484Z,25.90
2022-08-28T06:44:02.756Z,26.70
2022-08-28T06:46:33.080Z,27.60
2022-08-28T06:48:59.764Z,27.90
2022-08-28T06:51:26.466Z,28.10
2022-08-28T06:53:53.165Z,28.30
2022-08-28T06:56:26.429Z,28.10
2022-08-28T06:58:55.965Z,27.90
2022-08-28T07:01:26.807Z,27.80
2022-08-28T07:03:55.581Z,28.50
2022-08-28T07:06:23.265Z,28.70
2022-08-28T07:08:50.993Z,28.40
2022-08-28T07:11:21.767Z,28.20
2022-08-28T07:13:53.534Z,28.70
2022-08-28T07:16:23.496Z,28.40
2022-08-28T07:18:50.293Z,27.80
2022-08-28T07:21:17.489Z,28.00
2022-08-28T07:23:44.835Z,28.20
2022-08-28T07:26:14.311Z,28.30
2022-08-28T07:28:41.068Z,27.90
2022-08-28T07:31:10.959Z,28.40
2022-08-28T07:33:39.523Z,28.20
2022-08-28T07:36:08.946Z,28.30
2022-08-28T07:38:43.214Z,26.30
2022-08-28T07:41:18.527Z,25.00
2022-08-28T07:44:04.678Z,23.50
2022-08-28T07:46:31.478Z,22.80
2022-08-28T07:49:01.275Z,21.70
2022-08-28T07:51:28.960Z,21.40
2022-08-28T07:53:59.411Z,20.60
2022-08-28T07:56:29.651Z,20.60
2022-08-28T07:58:57.627Z,21.30
2022-08-28T08:01:25.374Z,20.40
2022-08-28T08:03:55.825Z,20.20
2022-08-28T08:06:33.919Z,20.30
2022-08-28T08:09:01.916Z,20.90
2022-08-28T08:11:32.150Z,21.80
2022-08-28T08:14:05.467Z,21.60
2022-08-28T08:16:38.844Z,21.70
2022-08-28T08:19:09.650Z,22.20
2022-08-28T08:21:37.192Z,22.20
2022-08-28T08:24:04.153Z,22.40
2022-08-28T08:26:30.825Z,22.70
2022-08-28T08:28:57.982Z,23.10
2022-08-28T08:31:28.384Z,23.40
2022-08-28T08:34:03.663Z,24.00
2022-08-28T08:36:32.269Z,23.90
2022-08-28T08:39:00.548Z,23.90
2022-08-28T08:41:49.767Z,24.10
2022-08-28T08:44:33.601Z,23.70
2022-08-28T08:47:03.783Z,23.40
2022-08-28T08:49:36.102Z,23.00
2022-08-28T08:52:23.010Z,22.80
2022-08-28T08:55:05.935Z,22.60
2022-08-28T08:57:34.899Z,23.00
2022-08-28T09:00:05.108Z,22.90
2022-08-28T09:02:37.032Z,22.60
2022-08-28T09:05:10.286Z,22.70
2022-08-28T09:07:44.554Z,22.80
2022-08-28T09:10:12.380Z,23.00
2022-08-28T09:12:57.335Z,23.00
2022-08-28T09:15:31.879Z,22.50
2022-08-28T09:18:27.074Z,22.10
2022-08-28T09:20:58.300Z,21.90
2022-08-28T09:23:30.049Z,21.80
2022-08-28T09:26:12.549Z,22.00
2022-08-28T09:28:41.550Z,22.30
2022-08-28T09:31:15.631Z,22.30
2022-08-28T09:33:49.888Z,22.40
2022-08-28T09:36:21.641Z,22.40
2022-08-28T09:39:06.339Z,22.50
2022-08-28T09:41:55.662Z,22.50
2022-08-28T09:44:22.442Z,22.50
2022-08-28T09:46:52.024Z,22.50
2022-08-28T09:49:28.720Z,22.40
2022-08-28T09:51:59.354Z,22.30
2022-08-28T09:54:34.239Z,22.20
2022-08-28T09:57:03.383Z,22.40
2022-08-28T09:59:30.610Z,22.60
2022-08-28T10:02:23.145Z,22.50
2022-08-28T10:04:58.927Z,22.60
2022-08-28T10:07:46.598Z,22.70
2022-08-28T10:10:40.125Z,22.90
2022-08-28T10:13:15.162Z,22.80
2022-08-28T10:15:56.996Z,23.00
2022-08-28T10:18:50.514Z,23.10
2022-08-28T10:21:50.989Z,23.10
2022-08-28T10:24:35.605Z,23.10
2022-08-28T10:27:31.547Z,23.20
2022-08-28T10:30:12.440Z,23.40
2022-08-28T10:32:48.798Z,23.10
2022-08-28T10:35:24.586Z,23.20
2022-08-28T10:37:54.335Z,23.10
2022-08-28T10:40:36.506Z,23.30
2022-08-28T10:43:31.428Z,23.50
2022-08-28T10:46:04.131Z,23.60
2022-08-28T10:48:35.100Z,23.70
2022-08-28T10:51:06.486Z,23.80
2022-08-28T10:53:44.133Z,23.70
2022-08-28T10:56:20.899Z,23.90
2022-08-28T10:58:51.815Z,23.90
2022-08-28T11:01:27.766Z,23.90
2022-08-28T11:03:57.313Z,23.80
2022-08-28T11:06:27.079Z,23.90
2022-08-28T11:08:56.775Z,23.80
2022-08-28T11:11:44.054Z,23.80
2022-08-28T11:14:23.099Z,23.90
2022-08-28T11:16:50.256Z,23.90
2022-08-28T11:19:21.511Z,23.90
2022-08-28T11:22:02.576Z,23.90
2022-08-28T11:24:43.810Z,23.90
2022-08-28T11:28:02.788Z,24.10
2022-08-28T11:30:35.483Z,24.10
2022-08-28T11:33:07.237Z,24.20
2022-08-28T11:35:46.568Z,24.40
2022-08-28T11:38:41.899Z,24.20
2022-08-28T11:41:17.392Z,24.40
2022-08-28T11:43:46.373Z,24.50
2022-08-28T11:46:32.750Z,24.70
2022-08-28T11:49:03.322Z,24.80
2022-08-28T11:51:42.901Z,25.00
2022-08-28T11:54:21.590Z,24.50
2022-08-28T11:57:05.735Z,24.10
2022-08-28T12:00:13.802Z,24.00
2022-08-28T12:02:40.527Z,24.10
2022-08-28T12:05:30.594Z,24.30
2022-08-28T12:07:58.901Z,24.60
2022-08-28T12:10:27.720Z,24.60
2022-08-28T12:12:56.247Z,24.80
2022-08-28T12:15:29.558Z,24.80
2022-08-28T12:18:03.672Z,25.00
2022-08-28T12:20:48.497Z,25.00
2022-08-28T12:23:39.095Z,25.10
2022-08-28T12:26:30.012Z,25.20
2022-08-28T12:28:58.251Z,25.50
2022-08-28T12:32:07.123Z,25.40
2022-08-28T12:34:51.895Z,25.10
2022-08-28T12:37:51.066Z,25.00
2022-08-28T12:40:31.958Z,25.10
2022-08-28T12:43:10.716Z,25.40
2022-08-28T12:45:45.296Z,25.50
2022-08-28T12:48:20.909Z,25.40
2022-08-28T12:50:48.280Z,25.40
2022-08-28T12:53:17.808Z,25.50
2022-08-28T12:55:45.877Z,25.50
2022-08-28T12:58:32.827Z,25.50
2022-08-28T13:01:10.909Z,25.20
2022-08-28T13:03:47.267Z,25.30
2022-08-28T13:06:19.937Z,25.10
2022-08-28T13:08:48.041Z,24.90
2022-08-28T13:11:19.909Z,24.80
2022-08-28T13:13:49.949Z,24.50
2022-08-28T13:16:43.157Z,24.60
2022-08-28T13:19:20.505Z,24.80
2022-08-28T13:21:47.097Z,25.00
2022-08-28T13:24:27.043Z,25.20
2022-08-28T13:27:12.032Z,25.20
2022-08-28T13:29:59.013Z,25.30
2022-08-28T13:32:33.580Z,25.20
2022-08-28T13:35:18.212Z,25.20
2022-08-28T13:37:44.837Z,25.30
2022-08-28T13:40:30.200Z,25.20
2022-08-28T13:43:11.101Z,25.40
2022-08-28T13:45:43.207Z,25.60
2022-08-28T13:48:15.514Z,25.70
2022-08-28T13:50:46.758Z,25.60
2022-08-28T13:53:16.560Z,25.60
2022-08-28T13:55:43.337Z,25.40
2022-08-28T13:58:10.530Z,25.30
2022-08-28T14:00:41.637Z,25.20
2022-08-28T14:03:26.840Z,25.20
2022-08-28T14:05:54.147Z,25.20
2022-08-28T14:08:21.535Z,25.20
2022-08-28T14:10:48.447Z,25.10
2022-08-28T14:13:15.198Z,25.10
2022-08-28T14:15:41.943Z,25.10
2022-08-28T14:18:08.647Z,25.00
2022-08-28T14:20:37.347Z,25.20
2022-08-28T14:23:04.000Z,24.90
2022-08-28T14:25:30.712Z,25.00
2022-08-28T14:27:57.388Z,25.10
2022-08-28T14:30:25.556Z,25.10
2022-08-28T14:32:52.200Z,25.00
2022-08-28T14:35:18.986Z,24.90
2022-08-28T14:37:45.701Z,24.90
2022-08-28T14:40:12.740Z,24.80
2022-08-28T14:42:41.685Z,24.90
2022-08-28T14:45:09.041Z,24.90
2022-08-28T14:47:36.568Z,24.80
2022-08-28T14:50:03.819Z,24.80
2022-08-28T14:52:30.506Z,24.70
2022-08-28T14:54:57.782Z,24.70
2022-08-28T14:57:24.610Z,24.60
2022-08-28T14:59:51.917Z,24.50
2022-08-28T15:02:18.762Z,24.70
2022-08-28T15:04:46.054Z,24.80
2022-08-28T15:07:13.274Z,24.60
2022-08-28T15:09:42.075Z,24.50
2022-08-28T15:12:11.195Z,24.40
2022-08-28T15:14:38.534Z,24.20
2022-08-28T15:17:05.562Z,24.20
2022-08-28T15:19:32.954Z,24.00
2022-08-28T15:22:00.954Z,23.90
2022-08-28T15:24:31.606Z,23.80
2022-08-28T15:26:59.399Z,23.60
2022-08-28T15:29:28.202Z,23.40
2022-08-28T15:31:55.604Z,23.50
2022-08-28T15:34:25.591Z,23.40
2022-08-28T15:36:55.179Z,23.40
2022-08-28T15:39:46.882Z,23.30
2022-08-28T15:42:14.506Z,23.20
2022-08-28T15:44:42.215Z,23.10
2022-08-28T15:47:09.296Z,23.10
2022-08-28T15:49:44.778Z,22.90
2022-08-28T15:52:15.937Z,23.00
2022-08-28T15:54:43.242Z,23.00
2022-08-28T15:57:09.940Z,22.90
2022-08-28T15:59:47.882Z,22.80
2022-08-28T16:02:19.697Z,22.80
2022-08-28T16:04:47.178Z,22.80
2022-08-28T16:07:13.900Z,22.70
2022-08-28T16:09:41.196Z,22.60
2022-08-28T16:12:08.021Z,22.50
2022-08-28T16:14:35.085Z,22.50
2022-08-28T16:17:05.771Z,22.50
2022-08-28T16:19:40.331Z,22.50
2022-08-28T16:22:08.072Z,22.50
2022-08-28T16:24:35.214Z,22.40
2022-08-28T16:27:02.189Z,22.40
2022-08-28T16:29:29.182Z,22.40
2022-08-28T16:31:56.635Z,22.30
2022-08-28T16:34:27.139Z,22.30
2022-08-28T16:36:54.982Z,22.30
2022-08-28T16:39:22.267Z,22.20
2022-08-28T16:41:50.116Z,22.20
2022-08-28T16:44:22.333Z,22.10
2022-08-28T16:46:49.332Z,22.10
2022-08-28T16:49:17.116Z,22.00
2022-08-28T16:51:44.058Z,22.00
2022-08-28T16:54:11.415Z,21.90
2022-08-28T16:56:38.283Z,21.90
2022-08-28T16:59:10.234Z,21.80
2022-08-28T17:01:38.233Z,21.80
2022-08-28T17:04:07.919Z,21.80
2022-08-28T17:06:34.862Z,21.70
2022-08-28T17:09:01.842Z,21.70
2022-08-28T17:11:29.223Z,21.60
2022-08-28T17:13:56.340Z,21.60
2022-08-28T17:16:25.164Z,21.50
2022-08-28T17:18:52.950Z,21.50
2022-08-28T17:21:40.862Z,21.50
2022-08-28T17:24:12.156Z,21.40
2022-08-28T17:26:40.451Z,21.40
2022-08-28T17:29:08.433Z,21.30
2022-08-28T17:31:35.437Z,21.20
2022-08-28T17:34:02.414Z,21.20
2022-08-28T17:36:34.012Z,21.20
2022-08-28T17:39:04.106Z,21.10
2022-08-28T17:41:32.101Z,21.10
2022-08-28T17:44:00.256Z,21.10
2022-08-28T17:46:26.930Z,20.90
2022-08-28T17:48:56.060Z,20.90
2022-08-28T17:51:43.026Z,20.80
2022-08-28T17:54:13.081Z,20.80
2022-08-28T17:56:40.520Z,20.70
2022-08-28T17:59:08.036Z,20.70
2022-08-28T18:01:34.907Z,20.60
2022-08-28T18:04:02.461Z,20.50
2022-08-28T18:06:29.147Z,20.50
2022-08-28T18:08:56.693Z,20.40
2022-08-28T18:11:23.497Z,20.40
2022-08-28T18:13:51.164Z,20.30
2022-08-28T18:16:17.906Z,20.20
2022-08-28T18:18:44.595Z,20.10
2022-08-28T18:21:12.845Z,20.10
2022-08-28T18:23:40.498Z,20.00
2022-08-28T18:26:08.595Z,19.90
2022-08-28T18:28:35.821Z,19.80
2022-08-28T18:31:05.518Z,19.80
2022-08-28T18:33:33.971Z,19.70
2022-08-28T18:36:00.867Z,19.60
2022-08-28T18:38:28.471Z,19.60
2022-08-28T18:40:56.157Z,19.40
2022-08-28T18:43:23.918Z,19.30
2022-08-28T18:45:51.244Z,19.30
2022-08-28T18:48:19.111Z,19.30
2022-08-28T18:50:47.324Z,19.30
2022-08-28T18:53:16.193Z,19.20
2022-08-28T18:55:43.012Z,19.10
2022-08-28T18:58:10.390Z,19.10
2022-08-28T19:00:42.848Z,19.00
2022-08-28T19:03:10.193Z,18.90
2022-08-28T19:05:38.692Z,18.90
2022-08-28T19:08:05.760Z,18.80
2022-08-28T19:10:34.880Z,18.80
2022-08-28T19:13:03.240Z,18.80
2022-08-28T19:15:33.025Z,18.80
2022-08-28T19:18:01.241Z,18.70
2022-08-28T19:20:29.286Z,18.70
2022-08-28T19:22:57.921Z,18.60
2022-08-28T19:25:28.194Z,18.50
2022-08-28T19:28:01.572Z,18.50
2022-08-28T19:30:32.843Z,18.40
2022-08-28T19:33:01.391Z,18.30
2022-08-28T19:35:28.065Z,18.30
2022-08-28T19:37:55.885Z,18.20
2022-08-28T19:40:23.114Z,18.20
2022-08-28T19:42:50.323Z,18.20
2022-08-28T19:45:18.400Z,18.10
2022-08-28T19:47:47.225Z,18.10
2022-08-28T19:50:14.989Z,18.00
2022-08-28T19:52:43.164Z,18.00
2022-08-28T19:55:31.790Z,17.90
2022-08-28T19:57:58.834Z,17.90
2022-08-28T20:00:29.274Z,17.90
2022-08-28T20:02:56.376Z,17.80
2022-08-28T20:05:23.130Z,17.70
2022-08-28T20:07:50.310Z,17.70
2022-08-28T20:10:18.433Z,17.60
2022-08-28T20:12:48.325Z,17.50
2022-08-28T20:15:17.508Z,17.50
2022-08-28T20:17:49.590Z,17.50
2022-08-28T20:20:19.023Z,17.40
2022-08-28T20:22:46.079Z,17.30
2022-08-28T20:25:13.531Z,17.30
2022-08-28T20:27:42.009Z,17.20
2022-08-28T20:30:11.185Z,17.20
2022-08-28T20:32:40.885Z,17.10
2022-08-28T20:35:09.893Z,17.10
2022-08-28T20:37:44.979Z,17.00
2022-08-28T20:40:18.480Z,17.00
2022-08-28T20:42:46.150Z,16.90
2022-08-28T20:45:14.998Z,16.90
2022-08-28T20:47:42.951Z,16.90
2022-08-28T20:50:10.301Z,16.80
2022-08-28T20:52:37.578Z,16.80
2022-08-28T20:55:07.519Z,16.70
2022-08-28T20:57:35.233Z,16.70
2022-08-28T21:00:05.532Z,16.70
2022-08-28T21:02:33.343Z,16.60
2022-08-28T21:05:00.265Z,16.60
2022-08-28T21:07:28.137Z,16.60
2022-08-28T21:10:07.199Z,16.50
2022-08-28T21:12:37.254Z,16.50
2022-08-28T21:15:06.146Z,16.40
2022-08-28T21:17:33.865Z,16.40
2022-08-28T21:20:04.301Z,16.40
2022-08-28T21:22:32.980Z,16.40
2022-08-28T21:25:03.260Z,16.40
2022-08-28T21:27:30.742Z,16.40
2022-08-28T21:29:59.153Z,16.30
2022-08-28T21:32:27.919Z,16.30
2022-08-28T21:34:55.012Z,16.20
2022-08-28T21:37:22.303Z,16.10
2022-08-28T21:39:49.566Z,16.10
2022-08-28T21:42:16.710Z,16.10
2022-08-28T21:44:51.239Z,16.10
2022-08-28T21:47:22.766Z,16.00
2022-08-28T21:49:51.544Z,16.00
2022-08-28T21:52:19.791Z,15.90
2022-08-28T21:54:46.875Z,15.90
2022-08-28T21:57:14.613Z,15.90
2022-08-28T21:59:43.583Z,15.80
2022-08-28T22:02:10.356Z,15.80
2022-08-28T22:04:37.100Z,15.80
2022-08-28T22:07:04.272Z,15.70
2022-08-28T22:09:31.290Z,15.60
2022-08-28T22:11:58.512Z,15.60
2022-08-28T22:14:25.802Z,15.60
2022-08-28T22:16:52.494Z,15.50
2022-08-28T22:19:19.764Z,15.50
2022-08-28T22:22:04.860Z,15.40
2022-08-28T22:24:31.861Z,15.40
2022-08-28T22:26:58.509Z,15.40
2022-08-28T22:29:25.930Z,15.40
2022-08-28T22:31:52.955Z,15.40
2022-08-28T22:34:20.212Z,15.30
2022-08-28T22:36:47.211Z,15.30
2022-08-28T22:39:14.798Z,15.20
2022-08-28T22:41:41.878Z,15.20
2022-08-28T22:44:10.090Z,15.10
2022-08-28T22:46:36.803Z,15.20
2022-08-28T22:49:04.749Z,15.10
2022-08-28T22:51:33.502Z,15.10
2022-08-28T22:54:00.874Z,15.00
2022-08-28T22:56:27.554Z,15.00
2022-08-28T22:58:54.605Z,15.00
2022-08-28T23:01:25.066Z,14.90
2022-08-28T23:03:52.517Z,14.90
2022-08-28T23:06:21.307Z,14.90
2022-08-28T23:08:48.390Z,14.90
2022-08-28T23:11:15.650Z,14.90
2022-08-28T23:13:42.714Z,14.80
2022-08-28T23:16:09.824Z,14.80
2022-08-28T23:19:06.486Z,14.70
2022-08-28T23:21:26.622Z,14.70
2022-08-28T23:23:55.279Z,14.70
2022-08-28T23:26:22.893Z,14.60
2022-08-28T23:28:51.199Z,14.60
2022-08-28T23:31:18.190Z,14.60
2022-08-28T23:33:46.543Z,14.60
2022-08-28T23:36:15.036Z,14.60
2022-08-28T23:38:44.688Z,14.60
2022-08-28T23:41:12.554Z,14.50
2022-08-28T23:43:40.443Z,14.40
2022-08-28T23:46:09.201Z,14.40
2022-08-28T23:48:40.806Z,14.40
2022-08-28T23:51:12.128Z,14.40
2022-08-28T23:53:41.172Z,14.30
2022-08-28T23:56:08.700Z,14.30
2022-08-28T23:58:36.242Z,14.30
